Time,TemperatureF,DewpointF,PressureIn,WindDirection,WindDirectionDegrees,WindSpeedMPH,WindSpeedGustMPH,Humidity,HourlyPrecipIn,Conditions,Clouds,dailyrainin,SoftwareType,DateUTC
2014-01-23 00:01:00,2.8,-3.9,30.04,NNE,21,6.9,6.9,73,0.00,CLR,,0.00,WeatherDisplay:10.37,2014-01-23 05:01:00,
2014-01-23 00:02:00,2.8,-4.1,30.04,NE,42,7.3,7.3,72,0.00,CLR,,0.00,WeatherDisplay:10.37,2014-01-23 05:02:00,
2014-01-23 00:06:00,2.6,-4.3,30.05,NE,51,11.7,11.7,72,0.00,CLR,,0.00,WeatherDisplay:10.37,2014-01-23 05:06:00,
2014-01-23 00:07:00,2.5,-4.4,30.05,North,7,6.9,6.9,72,0.00,CLR,,0.00,WeatherDisplay:10.37,2014-01-23 05:07:00,
2014-01-23 00:10:00,2.6,-4.1,30.05,North,349,0.0,0.0,73,0.00,CLR,,0.00,WeatherDisplay:10.37,2014-01-23 05:10:00,
2014-01-23 00:14:00,2.5,-4.1,30.05,NNE,17,8.1,8.1,73,0.00,CLR,,0.00,WeatherDisplay:10.37,2014-01-23 05:14:00,
2014-01-23 00:19:00,2.6,-4.1,30.05,North,6,4.6,4.6,73,0.00,CLR,,0.00,WeatherDisplay:10.37,2014-01-23 05:19:00,
2014-01-23 00:24:00,2.5,-4.1,30.05,North,11,5.0,5.0,73,0.00,CLR,,0.00,WeatherDisplay:10.37,2014-01-23 05:24:00,
2014-01-23 00:29:00,2.7,-4.0,30.05,North,11,0.0,0.0,73,0.00,CLR,,0.00,WeatherDisplay:10.37,2014-01-23 05:29:00,
2014-01-23 00:34:00,2.6,-4.1,30.05,North,11,0.0,0.0,73,0.00,CLR,,0.00,WeatherDisplay:10.37,2014-01-23 05:34:00,
2014-01-23 00:39:00,2.4,-4.2,30.05,North,11,0.0,0.0,73,0.00,CLR,,0.00,WeatherDisplay:10.37,2014-01-23 05:39:00,
2014-01-23 00:44:00,2.5,-3.9,30.05,North,4,3.5,3.5,74,0.00,CLR,,0.00,WeatherDisplay:10.37,2014-01-23 05:44:00,
2014-01-23 00:49:00,2.4,-4.2,30.05,NNW,347,0.0,0.0,73,0.00,CLR,,0.00,WeatherDisplay:10.37,2014-01-23 05:49:00,
2014-01-23 00:54:00,2.5,-4.1,30.05,NNW,347,0.0,0.0,73,0.00,CLR,,0.00,WeatherDisplay:10.37,2014-01-23 05:54:00,
2014-01-23 00:59:00,2.6,-4.1,30.05,NNW,347,0.0,0.0,73,0.00,CLR,,0.00,WeatherDisplay:10.37,2014-01-23 05:59:00,
2014-01-23 01:04:00,2.5,-3.9,30.05,NNW,347,0.0,0.0,74,0.00,CLR,,0.00,WeatherDisplay:10.37,2014-01-23 06:04:00,
2014-01-23 01:09:00,2.6,-3.8,30.06,NNW,347,0.0,0.0,74,0.00,CLR,,0.00,WeatherDisplay:10.37,2014-01-23 06:09:00,
2014-01-23 01:14:00,2.4,-3.7,30.06,NNW,347,0.0,0.0,75,0.00,CLR,,0.00,WeatherDisplay:10.37,2014-01-23 06:14:00,
2014-01-23 01:19:00,2.5,-3.9,30.06,NNW,347,0.0,0.0,74,0.00,CLR,,0.00,WeatherDisplay:10.37,2014-01-23 06:19:00,
2014-01-23 01:24:00,2.3,-4.1,30.06,NW,309,3.2,3.2,74,0.00,CLR,,0.00,WeatherDisplay:10.37,2014-01-23 06:24:00,
2014-01-23 01:29:00,2.3,-3.8,30.06,NW,309,0.0,0.0,75,0.00,CLR,,0.00,WeatherDisplay:10.37,2014-01-23 06:29:00,
2014-01-23 01:34:00,2.5,-3.6,30.06,SSW,206,0.0,0.0,75,0.00,CLR,,0.00,WeatherDisplay:10.37,2014-01-23 06:34:00,
2014-01-23 01:39:00,2.3,-3.8,30.06,SSW,206,0.0,0.0,75,0.00,CLR,,0.00,WeatherDisplay:10.37,2014-01-23 06:39:00,
2014-01-23 01:44:00,2.3,-4.1,30.07,NNE,23,6.1,6.1,74,0.00,CLR,,0.00,WeatherDisplay:10.37,2014-01-23 06:44:00,
2014-01-23 01:49:00,2.3,-4.1,30.07,NNE,21,0.0,0.0,74,0.00,CLR,,0.00,WeatherDisplay:10.37,2014-01-23 06:49:00,
2014-01-23 01:54:00,2.4,-4.0,30.07,NE,34,3.8,3.8,74,0.00,CLR,,0.00,WeatherDisplay:10.37,2014-01-23 06:54:00,
2014-01-23 01:59:00,2.3,-4.1,30.07,North,1,6.9,6.9,74,0.00,CLR,,0.00,WeatherDisplay:10.37,2014-01-23 06:59:00,
2014-01-23 02:04:00,2.2,-3.9,30.07,North,6,0.0,0.0,75,0.00,CLR,,0.00,WeatherDisplay:10.37,2014-01-23 07:04:00,
2014-01-23 02:09:00,2.1,-4.0,30.08,ENE,61,2.3,0.0,75,0.00,CLR,,0.00,WeatherDisplay:10.37,2014-01-23 07:09:00,
2014-01-23 02:14:00,2.2,-3.9,30.07,North,360,0.0,0.0,75,0.00,CLR,,0.00,WeatherDisplay:10.37,2014-01-23 07:14:00,
2014-01-23 02:19:00,2.1,-4.0,30.08,North,360,0.0,0.0,75,0.00,CLR,,0.00,WeatherDisplay:10.37,2014-01-23 07:19:00,
2014-01-23 02:24:00,2.2,-3.9,30.08,NNE,21,0.0,0.0,75,0.00,CLR,,0.00,WeatherDisplay:10.37,2014-01-23 07:24:00,
2014-01-23 02:29:00,2.0,-4.1,30.08,NNE,31,0.0,0.0,75,0.00,CLR,,0.00,WeatherDisplay:10.37,2014-01-23 07:29:00,
2014-01-23 02:34:00,1.8,-4.3,30.08,NNE,31,0.0,0.0,75,0.00,CLR,,0.00,WeatherDisplay:10.37,2014-01-23 07:34:00,
2014-01-23 02:39:00,2.0,-4.1,30.08,NNE,31,0.0,0.0,75,0.00,CLR,,0.00,WeatherDisplay:10.37,2014-01-23 07:39:00,
2014-01-23 02:44:00,2.1,-4.0,30.08,WNW,284,8.1,8.1,75,0.00,CLR,,0.00,WeatherDisplay:10.37,2014-01-23 07:44:00,
2014-01-23 02:49:00,2.2,-3.9,30.08,WNW,284,0.0,0.0,75,0.00,CLR,,0.00,WeatherDisplay:10.37,2014-01-23 07:49:00,
2014-01-23 02:54:00,2.0,-4.1,30.08,East,90,2.3,0.0,75,0.00,CLR,,0.00,WeatherDisplay:10.37,2014-01-23 07:54:00,
2014-01-23 02:59:00,1.8,-4.3,30.08,East,90,0.0,0.0,75,0.00,CLR,,0.00,WeatherDisplay:10.37,2014-01-23 07:59:00,
2014-01-23 03:04:00,2.2,-3.9,30.08,East,90,0.0,0.0,75,0.00,FEW,,0.00,WeatherDisplay:10.37,2014-01-23 08:04:00,
2014-01-23 03:09:00,1.8,-4.3,30.08,East,90,0.0,0.0,75,0.00,FEW,,0.00,WeatherDisplay:10.37,2014-01-23 08:09:00,
2014-01-23 03:14:00,1.8,-4.3,30.09,East,92,0.0,0.0,75,0.00,FEW,,0.00,WeatherDisplay:10.37,2014-01-23 08:14:00,
2014-01-23 03:19:00,1.5,-4.6,30.09,North,3,3.5,0.0,75,0.00,FEW,,0.00,WeatherDisplay:10.37,2014-01-23 08:19:00,
2014-01-23 03:24:00,1.7,-4.4,30.09,North,353,8.1,8.1,75,0.00,FEW,,0.00,WeatherDisplay:10.37,2014-01-23 08:24:00,
2014-01-23 03:29:00,1.7,-4.4,30.09,NNE,27,4.6,4.6,75,0.00,FEW,,0.00,WeatherDisplay:10.37,2014-01-23 08:29:00,
2014-01-23 03:34:00,1.6,-4.5,30.10,North,10,0.0,0.0,75,0.00,FEW,,0.00,WeatherDisplay:10.37,2014-01-23 08:34:00,
2014-01-23 03:39:00,1.5,-4.6,30.09,NNE,14,8.5,8.5,75,0.00,FEW,,0.00,WeatherDisplay:10.37,2014-01-23 08:39:00,
2014-01-23 03:44:00,1.5,-4.6,30.09,SW,233,6.0,6.0,75,0.00,FEW,,0.00,WeatherDisplay:10.37,2014-01-23 08:44:00,
2014-01-23 03:49:00,1.6,-4.5,30.09,NNE,21,0.0,0.0,75,0.00,FEW,,0.00,WeatherDisplay:10.37,2014-01-23 08:49:00,
2014-01-23 03:54:00,1.5,-4.6,30.09,North,360,0.0,0.0,75,0.00,FEW,,0.00,WeatherDisplay:10.37,2014-01-23 08:54:00,
2014-01-23 03:59:00,1.4,-4.6,30.10,North,4,3.4,3.4,75,0.00,FEW,,0.00,WeatherDisplay:10.37,2014-01-23 08:59:00,
2014-01-23 04:04:00,1.6,-4.5,30.10,NE,37,7.8,7.8,75,0.00,FEW,,0.00,WeatherDisplay:10.37,2014-01-23 09:04:00,
2014-01-23 04:09:00,1.5,-4.6,30.10,NE,54,3.5,3.5,75,0.00,FEW,,0.00,WeatherDisplay:10.37,2014-01-23 09:09:00,
2014-01-23 04:14:00,1.7,-4.4,30.10,North,0,0.0,0.0,75,0.00,FEW,,0.00,WeatherDisplay:10.37,2014-01-23 09:14:00,
2014-01-23 04:19:00,1.7,-4.4,30.10,West,275,6.9,6.9,75,0.00,FEW,,0.00,WeatherDisplay:10.37,2014-01-23 09:19:00,
2014-01-23 04:24:00,1.7,-4.4,30.10,West,275,0.0,0.0,75,0.00,FEW,,0.00,WeatherDisplay:10.37,2014-01-23 09:24:00,
2014-01-23 04:29:00,1.7,-4.4,30.11,NNE,32,0.0,0.0,75,0.00,FEW,,0.00,WeatherDisplay:10.37,2014-01-23 09:29:00,
2014-01-23 04:34:00,1.9,-4.2,30.11,North,7,4.6,4.6,75,0.00,FEW,,0.00,WeatherDisplay:10.37,2014-01-23 09:34:00,
2014-01-23 04:39:00,1.7,-4.4,30.11,NE,35,0.0,0.0,75,0.00,FEW,,0.00,WeatherDisplay:10.37,2014-01-23 09:39:00,
2014-01-23 04:44:00,1.7,-4.4,30.11,North,350,5.8,5.8,75,0.00,FEW,,0.00,WeatherDisplay:10.37,2014-01-23 09:44:00,
2014-01-23 04:49:00,1.6,-4.5,30.11,SW,226,0.0,0.0,75,0.00,FEW,,0.00,WeatherDisplay:10.37,2014-01-23 09:49:00,
2014-01-23 04:54:00,1.9,-4.2,30.11,NNW,333,0.0,0.0,75,0.00,FEW,,0.00,WeatherDisplay:10.37,2014-01-23 09:54:00,
2014-01-23 04:59:00,2.0,-4.1,30.11,North,6,9.0,9.0,75,0.00,FEW,,0.00,WeatherDisplay:10.37,2014-01-23 09:59:00,
2014-01-23 05:04:00,1.8,-4.5,30.11,NE,44,10.3,10.3,74,0.00,BKN,,0.00,WeatherDisplay:10.37,2014-01-23 10:04:00,
2014-01-23 05:09:00,1.8,-4.5,30.12,NW,319,6.6,6.6,74,0.00,BKN,,0.00,WeatherDisplay:10.37,2014-01-23 10:09:00,
2014-01-23 05:14:00,1.6,-4.7,30.12,NW,326,4.6,4.6,74,0.00,BKN,,0.00,WeatherDisplay:10.37,2014-01-23 10:14:00,
2014-01-23 05:19:00,1.8,-4.5,30.12,NNE,14,8.6,8.6,74,0.00,BKN,,0.00,WeatherDisplay:10.37,2014-01-23 10:19:00,
2014-01-23 05:24:00,1.7,-4.6,30.12,NNE,14,0.0,0.0,74,0.00,BKN,,0.00,WeatherDisplay:10.37,2014-01-23 10:24:00,
2014-01-23 05:29:00,1.8,-4.5,30.12,North,360,8.1,0.0,74,0.00,BKN,,0.00,WeatherDisplay:10.37,2014-01-23 10:29:00,
2014-01-23 05:34:00,2.1,-4.0,30.12,North,350,4.6,4.6,75,0.00,BKN,,0.00,WeatherDisplay:10.37,2014-01-23 10:34:00,
2014-01-23 05:39:00,2.0,-4.1,30.12,North,350,1.2,0.0,75,0.00,BKN,,0.00,WeatherDisplay:10.37,2014-01-23 10:39:00,
2014-01-23 05:44:00,1.8,-4.3,30.12,North,353,8.1,8.1,75,0.00,BKN,,0.00,WeatherDisplay:10.37,2014-01-23 10:44:00,
2014-01-23 05:49:00,1.9,-4.2,30.12,North,359,5.8,5.8,75,0.00,BKN,,0.00,WeatherDisplay:10.37,2014-01-23 10:49:00,
2014-01-23 05:54:00,1.9,-4.4,30.11,NNW,333,0.0,0.0,74,0.00,BKN,,0.00,WeatherDisplay:10.37,2014-01-23 10:54:00,
2014-01-23 05:59:00,1.9,-4.4,30.11,North,356,3.5,0.0,74,0.00,BKN,,0.00,WeatherDisplay:10.37,2014-01-23 10:59:00,
2014-01-23 06:04:00,1.9,-4.4,30.11,North,7,9.2,9.2,74,0.00,OVC,,0.00,WeatherDisplay:10.37,2014-01-23 11:04:00,
2014-01-23 06:09:00,1.8,-4.3,30.12,NNW,335,6.9,6.9,75,0.00,OVC,,0.00,WeatherDisplay:10.37,2014-01-23 11:09:00,
2014-01-23 06:14:00,1.7,-4.4,30.12,NW,312,6.9,6.9,75,0.00,OVC,,0.00,WeatherDisplay:10.37,2014-01-23 11:14:00,
2014-01-23 06:19:00,1.8,-4.3,30.12,NW,305,10.4,10.4,75,0.00,OVC,,0.00,WeatherDisplay:10.37,2014-01-23 11:19:00,
2014-01-23 06:24:00,2.1,-4.0,30.13,NNW,329,2.3,2.3,75,0.00,OVC,,0.00,WeatherDisplay:10.37,2014-01-23 11:24:00,
2014-01-23 06:29:00,2.1,-3.7,30.13,West,272,0.0,0.0,76,0.00,OVC,,0.00,WeatherDisplay:10.37,2014-01-23 11:29:00,
2014-01-23 06:34:00,1.9,-4.2,30.13,NNE,20,0.0,0.0,75,0.00,OVC,,0.00,WeatherDisplay:10.37,2014-01-23 11:34:00,
2014-01-23 06:39:00,1.7,-4.1,30.13,NNE,16,4.6,4.6,76,0.00,OVC,,0.00,WeatherDisplay:10.37,2014-01-23 11:39:00,
2014-01-23 06:44:00,1.8,-4.3,30.13,NW,325,2.3,0.0,75,0.00,OVC,,0.00,WeatherDisplay:10.37,2014-01-23 11:44:00,
2014-01-23 06:49:00,2.1,-3.7,30.13,NW,304,0.0,0.0,76,0.00,OVC,,0.00,WeatherDisplay:10.37,2014-01-23 11:49:00,
2014-01-23 06:54:00,1.8,-4.0,30.13,North,1,0.0,0.0,76,0.00,OVC,,0.00,WeatherDisplay:10.37,2014-01-23 11:54:00,
2014-01-23 06:59:00,1.7,-4.4,30.14,North,1,0.0,0.0,75,0.00,OVC,,0.00,WeatherDisplay:10.37,2014-01-23 11:59:00,
2014-01-23 07:04:00,1.7,-4.1,30.14,North,1,0.0,0.0,76,0.00,FEW,,0.00,WeatherDisplay:10.37,2014-01-23 12:04:00,
2014-01-23 07:09:00,1.9,-3.9,30.14,North,1,0.0,0.0,76,0.00,FEW,,0.00,WeatherDisplay:10.37,2014-01-23 12:09:00,
2014-01-23 07:14:00,1.7,-4.1,30.14,North,4,0.0,0.0,76,0.00,FEW,,0.00,WeatherDisplay:10.37,2014-01-23 12:14:00,
2014-01-23 07:19:00,1.5,-4.3,30.14,North,4,0.0,0.0,76,0.00,FEW,,0.00,WeatherDisplay:10.37,2014-01-23 12:19:00,
2014-01-23 07:24:00,1.3,-4.5,30.14,North,4,0.0,0.0,76,0.00,FEW,,0.00,WeatherDisplay:10.37,2014-01-23 12:24:00,
2014-01-23 07:29:00,1.1,-4.7,30.14,NNE,16,3.2,3.2,76,0.00,FEW,,0.00,WeatherDisplay:10.37,2014-01-23 12:29:00,
2014-01-23 07:34:00,1.2,-4.3,30.14,NNE,16,0.0,0.0,77,0.00,FEW,,0.00,WeatherDisplay:10.37,2014-01-23 12:34:00,
2014-01-23 07:39:00,1.3,-4.2,30.14,North,356,0.0,0.0,77,0.00,FEW,,0.00,WeatherDisplay:10.37,2014-01-23 12:39:00,
2014-01-23 07:44:00,1.5,-4.0,30.14,North,356,0.0,0.0,77,0.00,FEW,,0.00,WeatherDisplay:10.37,2014-01-23 12:44:00,
2014-01-23 07:49:00,1.4,-4.1,30.14,North,356,0.0,0.0,77,0.00,FEW,,0.00,WeatherDisplay:10.37,2014-01-23 12:49:00,
2014-01-23 07:54:00,1.5,-4.0,30.13,North,356,0.0,0.0,77,0.00,FEW,,0.00,WeatherDisplay:10.37,2014-01-23 12:54:00,
2014-01-23 07:59:00,1.6,-3.9,30.13,North,356,0.0,0.0,77,0.00,FEW,,0.00,WeatherDisplay:10.37,2014-01-23 12:59:00,
2014-01-23 08:04:00,1.9,-3.6,30.13,NE,34,0.0,0.0,77,0.00,SCT,,0.00,WeatherDisplay:10.37,2014-01-23 13:04:00,
2014-01-23 08:09:00,2.0,-3.8,30.13,NNW,347,5.0,5.0,76,0.00,SCT,,0.00,WeatherDisplay:10.37,2014-01-23 13:09:00,
2014-01-23 08:14:00,2.2,-3.6,30.12,NNE,23,0.0,0.0,76,0.00,SCT,,0.00,WeatherDisplay:10.37,2014-01-23 13:14:00,
2014-01-23 08:19:00,2.3,-3.5,30.12,NNE,23,0.0,0.0,76,0.00,SCT,,0.00,WeatherDisplay:10.37,2014-01-23 13:19:00,
2014-01-23 08:24:00,2.6,-3.2,30.12,NW,323,5.8,5.8,76,0.00,SCT,,0.00,WeatherDisplay:10.37,2014-01-23 13:24:00,
2014-01-23 08:29:00,2.7,-3.1,30.12,North,356,3.7,3.7,76,0.00,SCT,,0.00,WeatherDisplay:10.37,2014-01-23 13:29:00,
2014-01-23 08:34:00,2.7,-3.4,30.13,NNW,332,2.3,0.0,75,0.00,SCT,,0.00,WeatherDisplay:10.37,2014-01-23 13:34:00,
2014-01-23 08:39:00,2.7,-3.4,30.13,NW,308,6.5,6.5,75,0.00,SCT,,0.00,WeatherDisplay:10.37,2014-01-23 13:39:00,
2014-01-23 08:44:00,3.2,-2.9,30.13,NNW,328,0.0,0.0,75,0.00,SCT,,0.00,WeatherDisplay:10.37,2014-01-23 13:44:00,
2014-01-23 08:49:00,3.2,-3.2,30.13,NNE,23,0.0,0.0,74,0.00,SCT,,0.00,WeatherDisplay:10.37,2014-01-23 13:49:00,
2014-01-23 08:54:00,3.3,-3.4,30.13,NNW,336,8.1,8.1,73,0.00,SCT,,0.00,WeatherDisplay:10.37,2014-01-23 13:54:00,
2014-01-23 08:59:00,3.5,-3.2,30.13,NNW,337,6.2,6.2,73,0.00,SCT,,0.00,WeatherDisplay:10.37,2014-01-23 13:59:00,
2014-01-23 09:04:00,3.6,-3.1,30.13,WNW,292,9.6,9.6,73,0.00,CLR,,0.00,WeatherDisplay:10.37,2014-01-23 14:04:00,
2014-01-23 09:09:00,4.0,-2.7,30.14,NW,325,7.4,7.4,73,0.00,CLR,,0.00,WeatherDisplay:10.37,2014-01-23 14:09:00,
2014-01-23 09:14:00,4.0,-3.0,30.14,North,349,7.3,7.3,72,0.00,CLR,,0.00,WeatherDisplay:10.37,2014-01-23 14:14:00,
2014-01-23 09:19:00,4.2,-2.8,30.14,NNW,342,5.7,5.7,72,0.00,CLR,,0.00,WeatherDisplay:10.37,2014-01-23 14:19:00,
2014-01-23 09:24:00,4.7,-2.3,30.14,NW,309,9.2,9.2,72,0.00,CLR,,0.00,WeatherDisplay:10.37,2014-01-23 14:24:00,
2014-01-23 09:29:00,5.1,-1.9,30.13,NNW,332,2.3,0.0,72,0.00,CLR,,0.00,WeatherDisplay:10.37,2014-01-23 14:29:00,
2014-01-23 09:34:00,5.2,-1.8,30.13,NW,309,5.8,5.8,72,0.00,CLR,,0.00,WeatherDisplay:10.37,2014-01-23 14:34:00,
2014-01-23 09:39:00,5.6,-1.7,30.14,North,349,8.5,8.5,71,0.00,CLR,,0.00,WeatherDisplay:10.37,2014-01-23 14:39:00,
2014-01-23 09:44:00,6.0,-1.7,30.14,NNW,344,6.2,6.2,70,0.00,CLR,,0.00,WeatherDisplay:10.37,2014-01-23 14:44:00,
2014-01-23 09:49:00,6.1,-1.6,30.14,North,354,9.5,9.5,70,0.00,CLR,,0.00,WeatherDisplay:10.37,2014-01-23 14:49:00,
2014-01-23 09:51:00,6.4,-1.6,30.14,North,360,5.8,5.8,69,0.00,CLR,,0.00,WeatherDisplay:10.37,2014-01-23 14:51:00,
2014-01-23 09:56:00,6.7,-1.3,30.14,WNW,292,6.1,6.1,69,0.00,CLR,,0.00,WeatherDisplay:10.37,2014-01-23 14:56:00,
2014-01-23 10:01:00,7.2,-1.1,30.14,North,356,8.1,8.1,68,0.00,CLR,,0.00,WeatherDisplay:10.37,2014-01-23 15:01:00,
2014-01-23 10:06:00,7.8,-0.2,30.15,WNW,285,9.3,9.3,69,0.00,CLR,,0.00,WeatherDisplay:10.37,2014-01-23 15:06:00,
2014-01-23 10:11:00,7.9,-1.1,30.14,NNW,342,9.2,9.2,66,0.00,CLR,,0.00,WeatherDisplay:10.37,2014-01-23 15:11:00,
2014-01-23 10:16:00,7.8,-0.9,30.14,WSW,247,9.6,9.6,67,0.00,CLR,,0.00,WeatherDisplay:10.37,2014-01-23 15:16:00,
2014-01-23 10:21:00,8.2,-0.2,30.14,NNE,16,7.3,7.3,68,0.00,CLR,,0.00,WeatherDisplay:10.37,2014-01-23 15:21:00,
2014-01-23 10:26:00,8.3,-0.4,30.14,NNW,339,8.1,8.1,67,0.00,CLR,,0.00,WeatherDisplay:10.37,2014-01-23 15:26:00,
2014-01-23 10:31:00,8.7,0.0,30.14,West,280,9.4,9.4,67,0.00,CLR,,0.00,WeatherDisplay:10.37,2014-01-23 15:31:00,
2014-01-23 10:36:00,9.0,0.6,30.14,WSW,247,6.2,6.2,68,0.00,CLR,,0.00,WeatherDisplay:10.37,2014-01-23 15:36:00,
2014-01-23 10:41:00,9.2,0.5,30.14,NNW,336,6.2,6.2,67,0.00,CLR,,0.00,WeatherDisplay:10.37,2014-01-23 15:41:00,
2014-01-23 10:46:00,9.4,0.4,30.14,NE,34,8.1,8.1,66,0.00,CLR,,0.00,WeatherDisplay:10.37,2014-01-23 15:46:00,
2014-01-23 10:51:00,9.3,0.6,30.14,West,281,9.2,9.2,67,0.00,CLR,,0.00,WeatherDisplay:10.37,2014-01-23 15:51:00,
2014-01-23 10:56:00,9.3,0.6,30.14,NW,312,9.2,9.2,67,0.00,CLR,,0.00,WeatherDisplay:10.37,2014-01-23 15:56:00,
2014-01-23 11:01:00,9.7,1.3,30.13,WNW,289,11.3,11.3,68,0.00,CLR,,0.00,WeatherDisplay:10.37,2014-01-23 16:01:00,
2014-01-23 11:06:00,9.7,1.0,30.13,NW,311,6.9,6.9,67,0.00,CLR,,0.00,WeatherDisplay:10.37,2014-01-23 16:06:00,
2014-01-23 11:11:00,10.1,1.0,30.13,NW,304,9.2,9.2,66,0.00,CLR,,0.00,WeatherDisplay:10.37,2014-01-23 16:11:00,
2014-01-23 11:16:00,10.2,1.1,30.13,NW,315,6.9,6.9,66,0.00,CLR,,0.00,WeatherDisplay:10.37,2014-01-23 16:16:00,
2014-01-23 11:21:00,10.2,1.1,30.13,North,357,10.4,10.4,66,0.00,CLR,,0.00,WeatherDisplay:10.37,2014-01-23 16:21:00,
2014-01-23 11:26:00,10.5,1.4,30.12,NNW,328,6.1,6.1,66,0.00,CLR,,0.00,WeatherDisplay:10.37,2014-01-23 16:26:00,
2014-01-23 11:31:00,10.8,1.7,30.12,NW,309,10.4,10.4,66,0.00,CLR,,0.00,WeatherDisplay:10.37,2014-01-23 16:31:00,
2014-01-23 11:36:00,11.2,1.1,30.12,NE,45,5.5,5.5,63,0.00,CLR,,0.00,WeatherDisplay:10.37,2014-01-23 16:36:00,
2014-01-23 11:41:00,11.3,1.5,30.12,WNW,292,7.6,7.6,64,0.00,CLR,,0.00,WeatherDisplay:10.37,2014-01-23 16:41:00,
2014-01-23 11:46:00,11.7,1.6,30.12,WSW,237,9.2,9.2,63,0.00,CLR,,0.00,WeatherDisplay:10.37,2014-01-23 16:46:00,
2014-01-23 11:51:00,12.0,1.8,30.11,NNE,25,8.3,8.3,63,0.00,CLR,,0.00,WeatherDisplay:10.37,2014-01-23 16:51:00,
2014-01-23 11:56:00,12.1,1.9,30.12,NW,325,8.4,8.4,63,0.00,CLR,,0.00,WeatherDisplay:10.37,2014-01-23 16:56:00,
2014-01-23 12:01:00,12.2,2.0,30.12,NNW,336,9.6,9.6,63,0.00,CLR,,0.00,WeatherDisplay:10.37,2014-01-23 17:01:00,
2014-01-23 12:06:00,11.9,1.7,30.11,NW,323,8.1,8.1,63,0.00,CLR,,0.00,WeatherDisplay:10.37,2014-01-23 17:06:00,
2014-01-23 12:11:00,12.5,3.3,30.11,NW,306,13.8,13.8,66,0.00,CLR,,0.00,WeatherDisplay:10.37,2014-01-23 17:11:00,
2014-01-23 12:17:00,12.7,2.5,30.11,NNW,337,12.2,12.2,63,0.00,CLR,,0.00,WeatherDisplay:10.37,2014-01-23 17:17:00,
2014-01-23 12:22:00,12.9,3.0,30.11,NW,316,11.5,11.5,64,0.00,CLR,,0.00,WeatherDisplay:10.37,2014-01-23 17:22:00,
2014-01-23 12:27:00,13.0,3.1,30.11,West,264,9.2,9.2,64,0.00,CLR,,0.00,WeatherDisplay:10.37,2014-01-23 17:27:00,
2014-01-23 12:32:00,13.2,3.3,30.11,WNW,294,10.4,10.4,64,0.00,CLR,,0.00,WeatherDisplay:10.37,2014-01-23 17:32:00,
2014-01-23 12:37:00,13.5,3.6,30.11,WNW,294,7.5,7.5,64,0.00,CLR,,0.00,WeatherDisplay:10.37,2014-01-23 17:37:00,
2014-01-23 12:42:00,13.4,3.5,30.11,WSW,247,14.1,14.1,64,0.00,CLR,,0.00,WeatherDisplay:10.37,2014-01-23 17:42:00,
2014-01-23 12:47:00,13.6,3.4,30.11,NW,316,10.4,10.4,63,0.00,CLR,,0.00,WeatherDisplay:10.37,2014-01-23 17:47:00,
2014-01-23 12:52:00,13.8,3.6,30.11,North,0,8.3,8.3,63,0.00,CLR,,0.00,WeatherDisplay:10.37,2014-01-23 17:52:00,
2014-01-23 12:57:00,14.1,4.2,30.11,WNW,282,9.6,9.6,64,0.00,CLR,,0.00,WeatherDisplay:10.37,2014-01-23 17:57:00,
2014-01-23 13:02:00,14.4,4.1,30.10,North,350,8.1,8.1,63,0.00,CLR,,0.00,WeatherDisplay:10.37,2014-01-23 18:02:00,
2014-01-23 13:07:00,14.6,4.3,30.10,SW,229,10.9,10.9,63,0.00,CLR,,0.00,WeatherDisplay:10.37,2014-01-23 18:07:00,
2014-01-23 13:12:00,14.7,4.1,30.10,West,278,10.4,10.4,62,0.00,CLR,,0.00,WeatherDisplay:10.37,2014-01-23 18:12:00,
2014-01-23 13:17:00,14.7,4.1,30.10,NNW,329,6.9,6.9,62,0.00,CLR,,0.00,WeatherDisplay:10.37,2014-01-23 18:17:00,
2014-01-23 13:22:00,14.8,3.4,30.10,WSW,256,11.5,11.5,60,0.00,CLR,,0.00,WeatherDisplay:10.37,2014-01-23 18:22:00,
2014-01-23 13:27:00,14.7,4.1,30.10,WSW,256,6.9,6.9,62,0.00,CLR,,0.00,WeatherDisplay:10.37,2014-01-23 18:27:00,
2014-01-23 13:32:00,14.9,3.9,30.10,NW,308,11.7,11.7,61,0.00,CLR,,0.00,WeatherDisplay:10.37,2014-01-23 18:32:00,
2014-01-23 13:37:00,14.8,3.4,30.10,WNW,285,13.8,13.8,60,0.00,CLR,,0.00,WeatherDisplay:10.37,2014-01-23 18:37:00,
2014-01-23 13:42:00,14.8,3.8,30.10,West,272,5.2,5.2,61,0.00,CLR,,0.00,WeatherDisplay:10.37,2014-01-23 18:42:00,
2014-01-23 13:47:00,15.1,4.1,30.10,WSW,257,6.9,6.9,61,0.00,CLR,,0.00,WeatherDisplay:10.37,2014-01-23 18:47:00,
2014-01-23 13:52:00,15.3,4.3,30.10,WNW,295,12.4,12.4,61,0.00,CLR,,0.00,WeatherDisplay:10.37,2014-01-23 18:52:00,
2014-01-23 13:57:00,15.3,3.6,30.10,WNW,284,15.0,15.0,59,0.00,CLR,,0.00,WeatherDisplay:10.37,2014-01-23 18:57:00,
2014-01-23 14:02:00,15.2,3.5,30.10,West,278,9.2,9.2,59,0.00,FEW,,0.00,WeatherDisplay:10.37,2014-01-23 19:02:00,
2014-01-23 14:07:00,15.1,3.7,30.10,WNW,299,13.4,13.4,60,0.00,FEW,,0.00,WeatherDisplay:10.37,2014-01-23 19:07:00,
2014-01-23 14:12:00,15.0,3.6,30.10,West,278,10.4,10.4,60,0.00,FEW,,0.00,WeatherDisplay:10.37,2014-01-23 19:12:00,
2014-01-23 14:17:00,15.1,4.1,30.10,SW,227,9.2,9.2,61,0.00,FEW,,0.00,WeatherDisplay:10.37,2014-01-23 19:17:00,
2014-01-23 14:22:00,15.5,3.7,30.10,WNW,284,9.6,9.6,59,0.00,FEW,,0.00,WeatherDisplay:10.37,2014-01-23 19:22:00,
2014-01-23 14:27:00,16.0,4.6,30.11,West,270,10.4,10.4,60,0.00,FEW,,0.00,WeatherDisplay:10.37,2014-01-23 19:27:00,
2014-01-23 14:32:00,16.5,5.1,30.11,West,270,8.8,8.8,60,0.00,FEW,,0.00,WeatherDisplay:10.37,2014-01-23 19:32:00,
2014-01-23 14:37:00,16.8,5.3,30.11,NW,320,10.4,10.4,60,0.00,FEW,,0.00,WeatherDisplay:10.37,2014-01-23 19:37:00,
2014-01-23 14:42:00,16.6,5.1,30.11,WSW,243,16.1,16.1,60,0.00,FEW,,0.00,WeatherDisplay:10.37,2014-01-23 19:42:00,
2014-01-23 14:47:00,16.4,5.0,30.11,WNW,288,13.8,13.8,60,0.00,FEW,,0.00,WeatherDisplay:10.37,2014-01-23 19:47:00,
2014-01-23 14:52:00,15.6,4.2,30.11,NW,313,11.8,11.8,60,0.00,FEW,,0.00,WeatherDisplay:10.37,2014-01-23 19:52:00,
2014-01-23 14:57:00,15.3,4.6,30.11,WNW,295,12.7,12.7,62,0.00,FEW,,0.00,WeatherDisplay:10.37,2014-01-23 19:57:00,
2014-01-23 15:02:00,15.5,4.8,30.11,NE,40,10.4,10.4,62,0.00,SCT,,0.00,WeatherDisplay:10.37,2014-01-23 20:02:00,
2014-01-23 15:07:00,15.7,5.7,30.11,NW,305,2.7,2.7,64,0.00,SCT,,0.00,WeatherDisplay:10.37,2014-01-23 20:07:00,
2014-01-23 15:12:00,15.7,5.4,30.12,NW,306,7.3,7.3,63,0.00,SCT,,0.00,WeatherDisplay:10.37,2014-01-23 20:12:00,
2014-01-23 15:17:00,15.9,5.2,30.12,WNW,282,11.5,11.5,62,0.00,SCT,,0.00,WeatherDisplay:10.37,2014-01-23 20:17:00,
2014-01-23 15:22:00,15.8,5.8,30.12,NW,313,13.6,13.6,64,0.00,SCT,,0.00,WeatherDisplay:10.37,2014-01-23 20:22:00,
2014-01-23 15:27:00,15.7,6.0,30.12,NW,305,9.2,9.2,65,0.00,SCT,,0.00,WeatherDisplay:10.37,2014-01-23 20:27:00,
2014-01-23 15:32:00,15.6,6.3,30.12,NW,312,8.1,8.1,66,0.00,SCT,,0.00,WeatherDisplay:10.37,2014-01-23 20:32:00,
2014-01-23 15:37:00,15.7,6.0,30.12,WNW,284,13.8,13.8,65,0.00,SCT,,0.00,WeatherDisplay:10.37,2014-01-23 20:37:00,
2014-01-23 15:42:00,15.6,5.3,30.12,NNW,336,7.9,7.9,63,0.00,SCT,,0.00,WeatherDisplay:10.37,2014-01-23 20:42:00,
2014-01-23 15:47:00,15.6,5.6,30.12,NW,306,10.2,10.2,64,0.00,SCT,,0.00,WeatherDisplay:10.37,2014-01-23 20:47:00,
2014-01-23 15:52:00,15.6,5.6,30.12,West,264,12.7,12.7,64,0.00,SCT,,0.00,WeatherDisplay:10.37,2014-01-23 20:52:00,
2014-01-23 15:57:00,15.3,5.3,30.13,WNW,285,8.1,8.1,64,0.00,SCT,,0.00,WeatherDisplay:10.37,2014-01-23 20:57:00,
2014-01-23 16:02:00,15.7,5.7,30.14,North,360,8.2,8.2,64,0.00,CLR,,0.00,WeatherDisplay:10.37,2014-01-23 21:02:00,
2014-01-23 16:07:00,15.6,5.6,30.14,WNW,296,7.1,7.1,64,0.00,CLR,,0.00,WeatherDisplay:10.37,2014-01-23 21:07:00,
2014-01-23 16:12:00,15.6,5.6,30.14,NW,306,8.2,8.2,64,0.00,CLR,,0.00,WeatherDisplay:10.37,2014-01-23 21:12:00,
2014-01-23 16:17:00,15.5,6.2,30.14,West,271,6.4,6.4,66,0.00,CLR,,0.00,WeatherDisplay:10.37,2014-01-23 21:17:00,
2014-01-23 16:22:00,15.5,6.2,30.15,North,11,9.4,9.4,66,0.00,CLR,,0.00,WeatherDisplay:10.37,2014-01-23 21:22:00,
2014-01-23 16:27:00,15.3,5.7,30.16,NNW,329,9.2,9.2,65,0.00,CLR,,0.00,WeatherDisplay:10.37,2014-01-23 21:27:00,
2014-01-23 16:32:00,14.9,5.3,30.16,NNE,18,11.3,11.3,65,0.00,CLR,,0.00,WeatherDisplay:10.37,2014-01-23 21:32:00,
2014-01-23 16:37:00,15.2,5.9,30.16,WNW,288,8.6,8.6,66,0.00,CLR,,0.00,WeatherDisplay:10.37,2014-01-23 21:37:00,
2014-01-23 16:42:00,14.8,5.5,30.17,NNE,25,11.5,11.5,66,0.00,CLR,,0.00,WeatherDisplay:10.37,2014-01-23 21:42:00,
2014-01-23 16:47:00,15.1,6.1,30.17,West,275,7.1,7.1,67,0.00,CLR,,0.00,WeatherDisplay:10.37,2014-01-23 21:47:00,
2014-01-23 16:52:00,14.9,6.3,30.17,North,352,1.2,0.0,68,0.00,CLR,,0.00,WeatherDisplay:10.37,2014-01-23 21:52:00,
2014-01-23 16:57:00,14.7,6.7,30.17,North,354,7.4,7.4,70,0.00,CLR,,0.00,WeatherDisplay:10.37,2014-01-23 21:57:00,
2014-01-23 17:02:00,14.6,6.9,30.18,North,6,6.9,6.9,71,0.00,CLR,,0.00,WeatherDisplay:10.37,2014-01-23 22:02:00,
2014-01-23 17:07:00,14.2,6.9,30.18,NNW,340,5.2,5.2,72,0.00,CLR,,0.00,WeatherDisplay:10.37,2014-01-23 22:07:00,
2014-01-23 17:12:00,14.3,6.7,30.18,North,360,5.8,5.8,71,0.00,CLR,,0.00,WeatherDisplay:10.37,2014-01-23 22:12:00,
2014-01-23 17:17:00,14.2,6.6,30.18,WSW,250,4.6,4.6,71,0.00,CLR,,0.00,WeatherDisplay:10.37,2014-01-23 22:17:00,
2014-01-23 17:22:00,14.0,6.0,30.19,NW,311,5.8,5.8,70,0.00,CLR,,0.00,WeatherDisplay:10.37,2014-01-23 22:22:00,
2014-01-23 17:27:00,13.7,5.8,30.19,West,280,5.2,5.2,70,0.00,CLR,,0.00,WeatherDisplay:10.37,2014-01-23 22:27:00,
2014-01-23 17:32:00,13.6,5.0,30.19,WSW,258,9.6,9.6,68,0.00,CLR,,0.00,WeatherDisplay:10.37,2014-01-23 22:32:00,
2014-01-23 17:37:00,13.3,4.4,30.19,NW,305,5.8,5.8,67,0.00,CLR,,0.00,WeatherDisplay:10.37,2014-01-23 22:37:00,
2014-01-23 17:42:00,13.4,4.2,30.19,NW,319,5.8,5.8,66,0.00,CLR,,0.00,WeatherDisplay:10.37,2014-01-23 22:42:00,
2014-01-23 17:47:00,13.4,4.2,30.19,WNW,287,7.8,7.8,66,0.00,CLR,,0.00,WeatherDisplay:10.37,2014-01-23 22:47:00,
2014-01-23 17:52:00,13.3,4.1,30.20,WNW,299,7.1,7.1,66,0.00,CLR,,0.00,WeatherDisplay:10.37,2014-01-23 22:52:00,
2014-01-23 17:57:00,13.0,3.8,30.20,NW,319,0.0,0.0,66,0.00,CLR,,0.00,WeatherDisplay:10.37,2014-01-23 22:57:00,
2014-01-23 18:02:00,12.9,3.7,30.20,NNW,332,8.1,8.1,66,0.00,CLR,,0.00,WeatherDisplay:10.37,2014-01-23 23:02:00,
2014-01-23 18:07:00,12.8,3.6,30.20,NNW,346,0.0,0.0,66,0.00,CLR,,0.00,WeatherDisplay:10.37,2014-01-23 23:07:00,
2014-01-23 18:12:00,12.7,3.5,30.21,NNW,346,0.0,0.0,66,0.00,CLR,,0.00,WeatherDisplay:10.37,2014-01-23 23:12:00,
2014-01-23 18:17:00,12.4,3.2,30.21,NW,304,5.3,5.3,66,0.00,CLR,,0.00,WeatherDisplay:10.37,2014-01-23 23:17:00,
2014-01-23 18:22:00,12.2,3.0,30.21,WNW,287,6.9,6.9,66,0.00,CLR,,0.00,WeatherDisplay:10.37,2014-01-23 23:22:00,
2014-01-23 18:27:00,12.2,2.7,30.21,NW,309,9.2,9.2,65,0.00,CLR,,0.00,WeatherDisplay:10.37,2014-01-23 23:27:00,
2014-01-23 18:32:00,12.4,3.2,30.22,NW,306,5.8,5.8,66,0.00,CLR,,0.00,WeatherDisplay:10.37,2014-01-23 23:32:00,
2014-01-23 18:37:00,12.3,3.1,30.22,NW,313,4.6,4.6,66,0.00,CLR,,0.00,WeatherDisplay:10.37,2014-01-23 23:37:00,
2014-01-23 18:42:00,12.1,2.9,30.22,NW,318,8.5,8.5,66,0.00,CLR,,0.00,WeatherDisplay:10.37,2014-01-23 23:42:00,
2014-01-23 18:47:00,12.0,2.5,30.22,NW,323,9.2,9.2,65,0.00,CLR,,0.00,WeatherDisplay:10.37,2014-01-23 23:47:00,
2014-01-23 18:52:00,11.8,2.3,30.22,NW,316,8.1,8.1,65,0.00,CLR,,0.00,WeatherDisplay:10.37,2014-01-23 23:52:00,
2014-01-23 18:57:00,12.0,2.5,30.22,WNW,295,7.6,7.6,65,0.00,CLR,,0.00,WeatherDisplay:10.37,2014-01-23 23:57:00,
2014-01-23 19:02:00,11.8,2.3,30.22,NW,323,11.3,11.3,65,0.00,CLR,,0.00,WeatherDisplay:10.37,2014-01-24 00:02:00,
2014-01-23 19:07:00,11.9,2.4,30.23,West,281,8.5,8.5,65,0.00,CLR,,0.00,WeatherDisplay:10.37,2014-01-24 00:07:00,
2014-01-23 19:12:00,11.7,2.2,30.23,NW,316,6.9,6.9,65,0.00,CLR,,0.00,WeatherDisplay:10.37,2014-01-24 00:12:00,
2014-01-23 19:17:00,11.9,2.4,30.23,NNW,333,7.1,7.1,65,0.00,CLR,,0.00,WeatherDisplay:10.37,2014-01-24 00:17:00,
2014-01-23 19:22:00,12.0,2.5,30.23,West,271,4.6,4.6,65,0.00,CLR,,0.00,WeatherDisplay:10.37,2014-01-24 00:22:00,
2014-01-23 19:27:00,11.5,2.4,30.23,NNW,343,9.2,9.2,66,0.00,CLR,,0.00,WeatherDisplay:10.37,2014-01-24 00:27:00,
2014-01-23 19:32:00,11.6,2.5,30.23,NW,306,4.6,4.6,66,0.00,CLR,,0.00,WeatherDisplay:10.37,2014-01-24 00:32:00,
2014-01-23 19:37:00,11.7,2.6,30.23,SSE,164,9.8,9.8,66,0.00,CLR,,0.00,WeatherDisplay:10.37,2014-01-24 00:37:00,
2014-01-23 19:42:00,11.2,2.1,30.23,NNW,333,7.3,7.3,66,0.00,CLR,,0.00,WeatherDisplay:10.37,2014-01-24 00:42:00,
2014-01-23 19:47:00,11.4,2.3,30.23,WNW,296,4.9,4.9,66,0.00,CLR,,0.00,WeatherDisplay:10.37,2014-01-24 00:47:00,
2014-01-23 19:52:00,11.4,2.6,30.24,WNW,292,9.3,9.3,67,0.00,CLR,,0.00,WeatherDisplay:10.37,2014-01-24 00:52:00,
2014-01-23 19:57:00,11.4,2.6,30.24,NW,319,8.5,8.5,67,0.00,CLR,,0.00,WeatherDisplay:10.37,2014-01-24 00:57:00,
2014-01-23 20:02:00,11.1,2.0,30.24,NNW,339,9.7,9.7,66,0.00,CLR,,0.00,WeatherDisplay:10.37,2014-01-24 01:02:00,
2014-01-23 20:07:00,11.3,2.2,30.24,WNW,298,10.4,10.4,66,0.00,CLR,,0.00,WeatherDisplay:10.37,2014-01-24 01:07:00,
2014-01-23 20:12:00,11.2,2.1,30.24,WNW,285,9.2,9.2,66,0.00,CLR,,0.00,WeatherDisplay:10.37,2014-01-24 01:12:00,
2014-01-23 20:17:00,11.3,2.5,30.25,NW,311,10.4,10.4,67,0.00,CLR,,0.00,WeatherDisplay:10.37,2014-01-24 01:17:00,
2014-01-23 20:22:00,11.3,2.5,30.25,NW,316,3.5,3.5,67,0.00,CLR,,0.00,WeatherDisplay:10.37,2014-01-24 01:22:00,
2014-01-23 20:27:00,11.3,2.5,30.25,NW,304,9.2,9.2,67,0.00,CLR,,0.00,WeatherDisplay:10.37,2014-01-24 01:27:00,
2014-01-23 20:32:00,11.4,2.6,30.25,WNW,302,10.4,10.4,67,0.00,CLR,,0.00,WeatherDisplay:10.37,2014-01-24 01:32:00,
2014-01-23 20:38:00,11.4,2.5,30.25,WNW,296,5.0,10.0,67,0.00,CLR,,0.00,WeatherDisplay:10.37,2014-01-24 01:38:00,
2014-01-23 20:43:00,11.0,2.5,30.25,WNW,287,5.0,9.0,68,0.00,CLR,,0.00,WeatherDisplay:10.37,2014-01-24 01:43:00,
2014-01-23 20:48:00,10.9,2.4,30.25,WNW,292,10.4,10.4,68,0.00,CLR,,0.00,WeatherDisplay:10.37,2014-01-24 01:48:00,
2014-01-23 20:53:00,10.8,2.7,30.25,WSW,256,7.9,7.9,69,0.00,CLR,,0.00,WeatherDisplay:10.37,2014-01-24 01:53:00,
2014-01-23 20:58:00,11.0,2.9,30.25,West,265,8.5,8.5,69,0.00,CLR,,0.00,WeatherDisplay:10.37,2014-01-24 01:58:00,
2014-01-23 21:03:00,10.6,2.8,30.25,WNW,291,10.4,10.4,70,0.00,CLR,,0.00,WeatherDisplay:10.37,2014-01-24 02:03:00,
2014-01-23 21:08:00,10.6,2.5,30.26,NW,323,9.3,9.3,69,0.00,CLR,,0.00,WeatherDisplay:10.37,2014-01-24 02:08:00,
2014-01-23 21:13:00,10.7,2.9,30.26,NW,326,8.7,8.7,70,0.00,CLR,,0.00,WeatherDisplay:10.37,2014-01-24 02:13:00,
2014-01-23 21:18:00,10.8,3.0,30.26,WNW,292,9.2,9.2,70,0.00,CLR,,0.00,WeatherDisplay:10.37,2014-01-24 02:18:00,
2014-01-23 21:23:00,10.8,3.0,30.26,WNW,291,10.4,10.4,70,0.00,CLR,,0.00,WeatherDisplay:10.37,2014-01-24 02:23:00,
2014-01-23 21:28:00,10.7,2.9,30.26,WNW,287,7.3,7.3,70,0.00,CLR,,0.00,WeatherDisplay:10.37,2014-01-24 02:28:00,
2014-01-23 21:33:00,10.7,2.9,30.26,NW,323,5.2,5.2,70,0.00,CLR,,0.00,WeatherDisplay:10.37,2014-01-24 02:33:00,
2014-01-23 21:38:00,10.4,2.9,30.26,NW,312,9.2,9.2,71,0.00,CLR,,0.00,WeatherDisplay:10.37,2014-01-24 02:38:00,
2014-01-23 21:43:00,10.4,2.9,30.26,NW,308,6.5,6.5,71,0.00,CLR,,0.00,WeatherDisplay:10.37,2014-01-24 02:43:00,
2014-01-23 21:48:00,10.2,2.7,30.26,NW,323,8.1,8.1,71,0.00,CLR,,0.00,WeatherDisplay:10.37,2014-01-24 02:48:00,
2014-01-23 21:53:00,10.0,2.8,30.26,WSW,258,8.5,8.5,72,0.00,CLR,,0.00,WeatherDisplay:10.37,2014-01-24 02:53:00,
2014-01-23 21:58:00,10.0,2.8,30.26,WNW,291,6.9,6.9,72,0.00,CLR,,0.00,WeatherDisplay:10.37,2014-01-24 02:58:00,
2014-01-23 22:03:00,10.0,2.8,30.26,NW,308,9.2,9.2,72,0.00,CLR,,0.00,WeatherDisplay:10.37,2014-01-24 03:03:00,
2014-01-23 22:08:00,10.1,2.9,30.26,WNW,285,9.3,9.3,72,0.00,CLR,,0.00,WeatherDisplay:10.37,2014-01-24 03:08:00,
2014-01-23 22:13:00,10.1,2.9,30.26,WSW,253,5.8,5.8,72,0.00,CLR,,0.00,WeatherDisplay:10.37,2014-01-24 03:13:00,
2014-01-23 22:18:00,9.8,2.6,30.27,WSW,253,0.0,0.0,72,0.00,CLR,,0.00,WeatherDisplay:10.37,2014-01-24 03:18:00,
2014-01-23 22:23:00,9.8,2.9,30.27,SW,223,0.0,0.0,73,0.00,CLR,,0.00,WeatherDisplay:10.37,2014-01-24 03:23:00,
2014-01-23 22:28:00,9.5,2.6,30.27,NNW,332,5.8,5.8,73,0.00,CLR,,0.00,WeatherDisplay:10.37,2014-01-24 03:28:00,
2014-01-23 22:33:00,9.4,2.5,30.27,WNW,287,8.1,8.1,73,0.00,CLR,,0.00,WeatherDisplay:10.37,2014-01-24 03:33:00,
2014-01-23 22:38:00,8.8,2.2,30.27,WNW,292,2.3,2.3,74,0.00,CLR,,0.00,WeatherDisplay:10.37,2014-01-24 03:38:00,
2014-01-23 22:43:00,9.1,2.5,30.27,WNW,285,2.3,0.0,74,0.00,CLR,,0.00,WeatherDisplay:10.37,2014-01-24 03:43:00,
2014-01-23 22:48:00,8.9,2.6,30.27,WNW,284,6.9,6.9,75,0.00,CLR,,0.00,WeatherDisplay:10.37,2014-01-24 03:48:00,
2014-01-23 22:53:00,9.1,2.5,30.27,NW,306,3.5,3.5,74,0.00,CLR,,0.00,WeatherDisplay:10.37,2014-01-24 03:53:00,
2014-01-23 22:58:00,8.8,2.2,30.28,NW,322,0.0,0.0,74,0.00,CLR,,0.00,WeatherDisplay:10.37,2014-01-24 03:58:00,
2014-01-23 23:03:00,9.0,2.4,30.28,West,265,5.8,0.0,74,0.00,CLR,,0.00,WeatherDisplay:10.37,2014-01-24 04:03:00,
2014-01-23 23:08:00,8.7,2.1,30.28,West,265,0.0,0.0,74,0.00,CLR,,0.00,WeatherDisplay:10.37,2014-01-24 04:08:00,
2014-01-23 23:13:00,8.2,1.7,30.28,NW,304,0.0,0.0,74,0.00,CLR,,0.00,WeatherDisplay:10.37,2014-01-24 04:13:00,
2014-01-23 23:18:00,8.4,2.1,30.28,West,271,8.3,8.3,75,0.00,CLR,,0.00,WeatherDisplay:10.37,2014-01-24 04:18:00,
2014-01-23 23:23:00,8.4,2.1,30.28,WSW,251,0.0,0.0,75,0.00,CLR,,0.00,WeatherDisplay:10.37,2014-01-24 04:23:00,
2014-01-23 23:28:00,8.4,2.1,30.28,WNW,282,0.0,0.0,75,0.00,CLR,,0.00,WeatherDisplay:10.37,2014-01-24 04:28:00,
2014-01-23 23:33:00,8.0,1.8,30.28,NW,326,0.0,0.0,75,0.00,CLR,,0.00,WeatherDisplay:10.37,2014-01-24 04:33:00,
2014-01-23 23:38:00,8.1,2.1,30.28,West,270,9.2,9.2,76,0.00,CLR,,0.00,WeatherDisplay:10.37,2014-01-24 04:38:00,
2014-01-23 23:43:00,7.9,2.2,30.28,West,270,10.9,10.9,77,0.00,CLR,,0.00,WeatherDisplay:10.37,2014-01-24 04:43:00,
2014-01-23 23:48:00,7.8,2.1,30.28,West,280,7.0,7.0,77,0.00,CLR,,0.00,WeatherDisplay:10.37,2014-01-24 04:48:00,
2014-01-23 23:53:00,8.0,2.3,30.28,West,268,11.6,11.6,77,0.00,CLR,,0.00,WeatherDisplay:10.37,2014-01-24 04:53:00,
2014-01-23 23:58:00,8.0,2.0,30.28,West,260,13.8,13.8,76,0.00,CLR,,0.00,WeatherDisplay:10.37,2014-01-24 04:58:00,